sensor_id;sensor_type;location;lat;lon;timestamp;temperature;humidity
5901;DHT22;2976;49.764;9.796;2024-03-29T00:00:41;5.40;25.20
5901;DHT22;2976;49.764;9.796;2024-03-29T00:03:08;5.30;99.90
5901;DHT22;2976;49.764;9.796;2024-03-29T00:05:34;5.20;99.90
5901;DHT22;2976;49.764;9.796;2024-03-29T00:08:00;5.20;99.90
5901;DHT22;2976;49.764;9.796;2024-03-29T00:10:26;5.20;99.90
5901;DHT22;2976;49.764;9.796;2024-03-29T00:12:52;5.20;99.90
5901;DHT22;2976;49.764;9.796;2024-03-29T00:15:18;5.30;89.80
5901;DHT22;2976;49.764;9.796;2024-03-29T00:17:44;5.30;46.60
5901;DHT22;2976;49.764;9.796;2024-03-29T00:20:10;5.40;1.00
5901;DHT22;2976;49.764;9.796;2024-03-29T00:22:37;5.40;1.00
5901;DHT22;2976;49.764;9.796;2024-03-29T00:25:03;5.40;1.00
5901;DHT22;2976;49.764;9.796;2024-03-29T00:27:29;5.30;1.00
5901;DHT22;2976;49.764;9.796;2024-03-29T00:29:56;5.40;1.00
5901;DHT22;2976;49.764;9.796;2024-03-29T00:32:22;5.40;1.00
5901;DHT22;2976;49.764;9.796;2024-03-29T00:34:50;5.40;1.00
5901;DHT22;2976;49.764;9.796;2024-03-29T00:37:16;5.50;1.00
5901;DHT22;2976;49.764;9.796;2024-03-29T00:39:42;5.50;1.00
5901;DHT22;2976;49.764;9.796;2024-03-29T00:42:10;5.40;1.00
5901;DHT22;2976;49.764;9.796;2024-03-29T00:44:38;5.40;1.00
5901;DHT22;2976;49.764;9.796;2024-03-29T00:47:05;5.30;1.00
5901;DHT22;2976;49.764;9.796;2024-03-29T00:49:31;5.30;1.00
5901;DHT22;2976;49.764;9.796;2024-03-29T00:51:57;5.20;1.00
5901;DHT22;2976;49.764;9.796;2024-03-29T00:54:23;5.20;1.00
5901;DHT22;2976;49.764;9.796;2024-03-29T00:56:51;5.20;1.00
5901;DHT22;2976;49.764;9.796;2024-03-29T00:59:18;5.10;1.00
5901;DHT22;2976;49.764;9.796;2024-03-29T01:01:44;5.00;1.00
5901;DHT22;2976;49.764;9.796;2024-03-29T01:04:10;5.00;8.70
5901;DHT22;2976;49.764;9.796;2024-03-29T01:06:37;5.10;1.00
5901;DHT22;2976;49.764;9.796;2024-03-29T01:09:03;5.10;1.00
5901;DHT22;2976;49.764;9.796;2024-03-29T01:11:30;5.20;1.00
5901;DHT22;2976;49.764;9.796;2024-03-29T01:13:55;5.30;1.00
5901;DHT22;2976;49.764;9.796;2024-03-29T01:16:21;5.40;1.00
5901;DHT22;2976;49.764;9.796;2024-03-29T01:18:49;5.60;1.00
5901;DHT22;2976;49.764;9.796;2024-03-29T01:21:17;5.60;1.00
5901;DHT22;2976;49.764;9.796;2024-03-29T01:23:43;5.70;1.00
5901;DHT22;2976;49.764;9.796;2024-03-29T01:26:09;5.80;1.00
5901;DHT22;2976;49.764;9.796;2024-03-29T01:28:38;6.00;1.00
5901;DHT22;2976;49.764;9.796;2024-03-29T01:31:04;6.10;1.00
5901;DHT22;2976;49.764;9.796;2024-03-29T01:33:31;6.10;99.90
5901;DHT22;2976;49.764;9.796;2024-03-29T01:36:12;6.20;99.90
5901;DHT22;2976;49.764;9.796;2024-03-29T01:38:37;6.20;99.90
5901;DHT22;2976;49.764;9.796;2024-03-29T01:41:03;6.30;99.90
5901;DHT22;2976;49.764;9.796;2024-03-29T01:43:29;6.40;99.90
5901;DHT22;2976;49.764;9.796;2024-03-29T01:45:56;6.40;99.90
5901;DHT22;2976;49.764;9.796;2024-03-29T01:48:23;6.50;99.90
5901;DHT22;2976;49.764;9.796;2024-03-29T01:50:52;6.60;99.90
5901;DHT22;2976;49.764;9.796;2024-03-29T01:53:20;6.60;99.90
5901;DHT22;2976;49.764;9.796;2024-03-29T01:55:47;6.60;99.90
5901;DHT22;2976;49.764;9.796;2024-03-29T01:58:14;6.70;99.90
5901;DHT22;2976;49.764;9.796;2024-03-29T02:00:54;6.80;99.90
5901;DHT22;2976;49.764;9.796;2024-03-29T02:03:20;6.70;99.90
5901;DHT22;2976;49.764;9.796;2024-03-29T02:05:50;6.70;99.90
5901;DHT22;2976;49.764;9.796;2024-03-29T02:08:18;6.70;99.90
5901;DHT22;2976;49.764;9.796;2024-03-29T02:10:47;6.70;99.90
5901;DHT22;2976;49.764;9.796;2024-03-29T02:13:13;6.70;99.90
5901;DHT22;2976;49.764;9.796;2024-03-29T02:15:40;6.70;99.90
5901;DHT22;2976;49.764;9.796;2024-03-29T02:18:06;6.70;99.90
5901;DHT22;2976;49.764;9.796;2024-03-29T02:20:33;6.70;99.90
5901;DHT22;2976;49.764;9.796;2024-03-29T02:23:07;6.70;99.90
5901;DHT22;2976;49.764;9.796;2024-03-29T02:25:35;6.60;99.90
5901;DHT22;2976;49.764;9.796;2024-03-29T02:28:02;6.60;99.90
5901;DHT22;2976;49.764;9.796;2024-03-29T02:30:28;6.60;99.90
5901;DHT22;2976;49.764;9.796;2024-03-29T02:33:00;6.60;99.90
5901;DHT22;2976;49.764;9.796;2024-03-29T02:35:26;6.60;99.90
5901;DHT22;2976;49.764;9.796;2024-03-29T02:37:52;6.60;99.90
5901;DHT22;2976;49.764;9.796;2024-03-29T02:40:21;6.60;99.90
5901;DHT22;2976;49.764;9.796;2024-03-29T02:42:52;6.60;99.90
5901;DHT22;2976;49.764;9.796;2024-03-29T02:45:20;6.60;99.90
5901;DHT22;2976;49.764;9.796;2024-03-29T02:47:46;6.60;99.90
5901;DHT22;2976;49.764;9.796;2024-03-29T02:50:14;6.60;99.90
5901;DHT22;2976;49.764;9.796;2024-03-29T02:52:42;6.60;99.90
5901;DHT22;2976;49.764;9.796;2024-03-29T02:55:09;6.50;99.90
5901;DHT22;2976;49.764;9.796;2024-03-29T02:57:38;6.50;99.90
5901;DHT22;2976;49.764;9.796;2024-03-29T03:00:07;6.50;99.90
5901;DHT22;2976;49.764;9.796;2024-03-29T03:02:38;6.60;99.90
5901;DHT22;2976;49.764;9.796;2024-03-29T03:05:05;6.60;99.90
5901;DHT22;2976;49.764;9.796;2024-03-29T03:07:34;6.60;99.90
5901;DHT22;2976;49.764;9.796;2024-03-29T03:10:18;6.50;99.90
5901;DHT22;2976;49.764;9.796;2024-03-29T03:13:02;6.60;99.90
5901;DHT22;2976;49.764;9.796;2024-03-29T03:15:28;6.60;99.90
5901;DHT22;2976;49.764;9.796;2024-03-29T03:17:54;6.50;99.90
5901;DHT22;2976;49.764;9.796;2024-03-29T03:20:19;6.60;99.90
5901;DHT22;2976;49.764;9.796;2024-03-29T03:22:45;6.60;99.90
5901;DHT22;2976;49.764;9.796;2024-03-29T03:25:10;6.60;99.90
5901;DHT22;2976;49.764;9.796;2024-03-29T03:27:38;6.60;99.90
5901;DHT22;2976;49.764;9.796;2024-03-29T03:30:07;6.50;99.90
5901;DHT22;2976;49.764;9.796;2024-03-29T03:32:33;6.60;99.90
5901;DHT22;2976;49.764;9.796;2024-03-29T03:34:59;6.60;99.90
5901;DHT22;2976;49.764;9.796;2024-03-29T03:37:24;6.60;99.90
5901;DHT22;2976;49.764;9.796;2024-03-29T03:39:50;6.60;99.90
5901;DHT22;2976;49.764;9.796;2024-03-29T03:42:18;6.60;99.90
5901;DHT22;2976;49.764;9.796;2024-03-29T03:44:51;6.70;99.90
5901;DHT22;2976;49.764;9.796;2024-03-29T03:47:17;6.80;99.90
5901;DHT22;2976;49.764;9.796;2024-03-29T03:49:43;6.80;99.90
5901;DHT22;2976;49.764;9.796;2024-03-29T03:52:09;6.80;99.90
5901;DHT22;2976;49.764;9.796;2024-03-29T03:54:35;6.80;99.90
5901;DHT22;2976;49.764;9.796;2024-03-29T03:57:04;6.80;99.90
5901;DHT22;2976;49.764;9.796;2024-03-29T03:59:30;6.90;99.90
5901;DHT22;2976;49.764;9.796;2024-03-29T04:01:56;6.80;99.90
5901;DHT22;2976;49.764;9.796;2024-03-29T04:04:22;6.80;99.90
5901;DHT22;2976;49.764;9.796;2024-03-29T04:06:48;6.80;99.90
5901;DHT22;2976;49.764;9.796;2024-03-29T04:09:19;6.90;99.90
5901;DHT22;2976;49.764;9.796;2024-03-29T04:11:44;6.90;99.90
5901;DHT22;2976;49.764;9.796;2024-03-29T04:14:10;6.90;99.90
5901;DHT22;2976;49.764;9.796;2024-03-29T04:16:36;7.00;99.90
5901;DHT22;2976;49.764;9.796;2024-03-29T04:19:01;6.90;99.90
5901;DHT22;2976;49.764;9.796;2024-03-29T04:21:33;6.90;99.90
5901;DHT22;2976;49.764;9.796;2024-03-29T04:23:59;6.90;99.90
5901;DHT22;2976;49.764;9.796;2024-03-29T04:26:24;6.80;99.90
5901;DHT22;2976;49.764;9.796;2024-03-29T04:28:53;6.80;99.90
5901;DHT22;2976;49.764;9.796;2024-03-29T04:31:18;6.90;99.90
5901;DHT22;2976;49.764;9.796;2024-03-29T04:33:44;6.90;99.90
5901;DHT22;2976;49.764;9.796;2024-03-29T04:36:10;6.90;99.90
5901;DHT22;2976;49.764;9.796;2024-03-29T04:38:35;7.00;99.90
5901;DHT22;2976;49.764;9.796;2024-03-29T04:41:01;7.20;99.90
5901;DHT22;2976;49.764;9.796;2024-03-29T04:43:28;7.30;99.90
5901;DHT22;2976;49.764;9.796;2024-03-29T04:46:08;7.50;99.90
5901;DHT22;2976;49.764;9.796;2024-03-29T04:48:43;7.60;99.90
5901;DHT22;2976;49.764;9.796;2024-03-29T04:51:11;7.70;99.90
5901;DHT22;2976;49.764;9.796;2024-03-29T04:53:40;7.90;99.90
5901;DHT22;2976;49.764;9.796;2024-03-29T04:56:09;7.90;99.90
5901;DHT22;2976;49.764;9.796;2024-03-29T04:58:35;8.00;99.90
5901;DHT22;2976;49.764;9.796;2024-03-29T05:01:01;8.10;99.90
5901;DHT22;2976;49.764;9.796;2024-03-29T05:03:27;8.10;99.90
5901;DHT22;2976;49.764;9.796;2024-03-29T05:05:53;8.20;99.90
5901;DHT22;2976;49.764;9.796;2024-03-29T05:08:19;8.30;99.90
5901;DHT22;2976;49.764;9.796;2024-03-29T05:10:45;8.10;1.00
5901;DHT22;2976;49.764;9.796;2024-03-29T05:13:11;8.10;1.00
5901;DHT22;2976;49.764;9.796;2024-03-29T05:15:37;8.10;1.00
5901;DHT22;2976;49.764;9.796;2024-03-29T05:18:03;8.10;1.00
5901;DHT22;2976;49.764;9.796;2024-03-29T05:20:29;8.10;99.90
5901;DHT22;2976;49.764;9.796;2024-03-29T05:22:55;8.10;99.90
5901;DHT22;2976;49.764;9.796;2024-03-29T05:25:20;8.10;99.90
5901;DHT22;2976;49.764;9.796;2024-03-29T05:27:47;8.00;99.90
5901;DHT22;2976;49.764;9.796;2024-03-29T05:30:13;8.10;1.00
5901;DHT22;2976;49.764;9.796;2024-03-29T05:32:39;8.10;1.00
5901;DHT22;2976;49.764;9.796;2024-03-29T05:35:05;8.20;1.00
5901;DHT22;2976;49.764;9.796;2024-03-29T05:37:31;8.20;1.00
5901;DHT22;2976;49.764;9.796;2024-03-29T05:39:56;8.10;1.00
5901;DHT22;2976;49.764;9.796;2024-03-29T05:42:29;8.10;1.00
5901;DHT22;2976;49.764;9.796;2024-03-29T05:44:54;8.10;1.00
5901;DHT22;2976;49.764;9.796;2024-03-29T05:47:20;8.10;1.00
5901;DHT22;2976;49.764;9.796;2024-03-29T05:49:49;8.20;1.00
5901;DHT22;2976;49.764;9.796;2024-03-29T05:52:15;8.20;1.00
5901;DHT22;2976;49.764;9.796;2024-03-29T05:54:44;8.20;22.10
5901;DHT22;2976;49.764;9.796;2024-03-29T05:57:11;8.20;99.40
5901;DHT22;2976;49.764;9.796;2024-03-29T05:59:37;8.20;1.00
5901;DHT22;2976;49.764;9.796;2024-03-29T06:02:03;8.20;99.90
5901;DHT22;2976;49.764;9.796;2024-03-29T06:04:29;8.30;99.90
5901;DHT22;2976;49.764;9.796;2024-03-29T06:07:01;8.20;99.90
5901;DHT22;2976;49.764;9.796;2024-03-29T06:09:27;8.20;96.60
5901;DHT22;2976;49.764;9.796;2024-03-29T06:11:56;8.30;1.00
5901;DHT22;2976;49.764;9.796;2024-03-29T06:14:26;8.30;1.00
5901;DHT22;2976;49.764;9.796;2024-03-29T06:17:10;8.40;1.00
5901;DHT22;2976;49.764;9.796;2024-03-29T06:19:51;8.40;1.00
5901;DHT22;2976;49.764;9.796;2024-03-29T06:22:23;8.40;1.00
5901;DHT22;2976;49.764;9.796;2024-03-29T06:24:51;8.50;1.00
5901;DHT22;2976;49.764;9.796;2024-03-29T06:27:20;8.50;1.00
5901;DHT22;2976;49.764;9.796;2024-03-29T06:29:48;8.50;1.00
5901;DHT22;2976;49.764;9.796;2024-03-29T06:32:14;8.60;1.00
5901;DHT22;2976;49.764;9.796;2024-03-29T06:34:40;8.60;1.00
5901;DHT22;2976;49.764;9.796;2024-03-29T06:37:05;8.60;1.00
5901;DHT22;2976;49.764;9.796;2024-03-29T06:39:31;8.70;1.00
5901;DHT22;2976;49.764;9.796;2024-03-29T06:41:56;8.70;1.00
5901;DHT22;2976;49.764;9.796;2024-03-29T06:44:22;8.70;1.00
5901;DHT22;2976;49.764;9.796;2024-03-29T06:46:48;8.70;1.00
5901;DHT22;2976;49.764;9.796;2024-03-29T06:49:13;8.70;1.00
5901;DHT22;2976;49.764;9.796;2024-03-29T06:51:39;8.70;1.00
5901;DHT22;2976;49.764;9.796;2024-03-29T06:54:08;8.80;1.00
5901;DHT22;2976;49.764;9.796;2024-03-29T06:56:34;8.80;1.00
5901;DHT22;2976;49.764;9.796;2024-03-29T06:58:59;8.80;1.00
5901;DHT22;2976;49.764;9.796;2024-03-29T07:01:25;8.80;1.00
5901;DHT22;2976;49.764;9.796;2024-03-29T07:03:53;8.80;1.00
5901;DHT22;2976;49.764;9.796;2024-03-29T07:06:18;8.90;1.00
5901;DHT22;2976;49.764;9.796;2024-03-29T07:08:44;9.00;1.00
5901;DHT22;2976;49.764;9.796;2024-03-29T07:11:09;9.10;1.00
5901;DHT22;2976;49.764;9.796;2024-03-29T07:13:35;9.20;1.00
5901;DHT22;2976;49.764;9.796;2024-03-29T07:16:02;9.30;99.90
5901;DHT22;2976;49.764;9.796;2024-03-29T07:18:28;9.40;99.90
5901;DHT22;2976;49.764;9.796;2024-03-29T07:20:53;9.50;99.90
5901;DHT22;2976;49.764;9.796;2024-03-29T07:23:19;9.70;99.90
5901;DHT22;2976;49.764;9.796;2024-03-29T07:25:56;9.80;99.90
5901;DHT22;2976;49.764;9.796;2024-03-29T07:28:22;9.80;99.90
5901;DHT22;2976;49.764;9.796;2024-03-29T07:30:47;9.90;99.90
5901;DHT22;2976;49.764;9.796;2024-03-29T07:33:15;9.90;99.90
5901;DHT22;2976;49.764;9.796;2024-03-29T07:35:41;9.90;99.90
5901;DHT22;2976;49.764;9.796;2024-03-29T07:38:08;9.90;99.90
5901;DHT22;2976;49.764;9.796;2024-03-29T07:40:33;9.90;99.90
5901;DHT22;2976;49.764;9.796;2024-03-29T07:43:00;9.90;99.90
5901;DHT22;2976;49.764;9.796;2024-03-29T07:45:26;9.80;99.90
5901;DHT22;2976;49.764;9.796;2024-03-29T07:47:52;9.80;99.90
5901;DHT22;2976;49.764;9.796;2024-03-29T07:50:21;9.90;99.90
5901;DHT22;2976;49.764;9.796;2024-03-29T07:52:47;9.90;99.90
5901;DHT22;2976;49.764;9.796;2024-03-29T07:55:13;10.00;99.90
5901;DHT22;2976;49.764;9.796;2024-03-29T07:57:38;10.10;99.90
5901;DHT22;2976;49.764;9.796;2024-03-29T08:00:05;10.20;99.90
5901;DHT22;2976;49.764;9.796;2024-03-29T08:02:32;10.30;99.90
5901;DHT22;2976;49.764;9.796;2024-03-29T08:04:57;10.40;99.90
5901;DHT22;2976;49.764;9.796;2024-03-29T08:07:23;10.30;99.90
5901;DHT22;2976;49.764;9.796;2024-03-29T08:09:49;10.20;99.90
5901;DHT22;2976;49.764;9.796;2024-03-29T08:12:16;10.20;99.90
5901;DHT22;2976;49.764;9.796;2024-03-29T08:14:41;10.20;99.90
5901;DHT22;2976;49.764;9.796;2024-03-29T08:17:07;10.20;99.90
5901;DHT22;2976;49.764;9.796;2024-03-29T08:19:35;10.20;99.90
5901;DHT22;2976;49.764;9.796;2024-03-29T08:22:01;10.30;99.90
5901;DHT22;2976;49.764;9.796;2024-03-29T08:24:29;10.30;99.90
5901;DHT22;2976;49.764;9.796;2024-03-29T08:26:55;10.20;99.90
5901;DHT22;2976;49.764;9.796;2024-03-29T08:29:20;10.30;99.90
5901;DHT22;2976;49.764;9.796;2024-03-29T08:31:46;10.30;99.90
5901;DHT22;2976;49.764;9.796;2024-03-29T08:34:12;10.30;99.90
5901;DHT22;2976;49.764;9.796;2024-03-29T08:36:39;10.30;99.90
5901;DHT22;2976;49.764;9.796;2024-03-29T08:39:05;10.30;99.90
5901;DHT22;2976;49.764;9.796;2024-03-29T08:41:31;10.30;99.90
5901;DHT22;2976;49.764;9.796;2024-03-29T08:43:56;10.40;99.90
5901;DHT22;2976;49.764;9.796;2024-03-29T08:46:22;10.30;99.90
5901;DHT22;2976;49.764;9.796;2024-03-29T08:48:48;10.30;99.90
5901;DHT22;2976;49.764;9.796;2024-03-29T08:51:13;10.20;99.90
5901;DHT22;2976;49.764;9.796;2024-03-29T08:53:40;10.20;1.00
5901;DHT22;2976;49.764;9.796;2024-03-29T08:56:06;10.20;1.00
5901;DHT22;2976;49.764;9.796;2024-03-29T08:58:32;10.20;1.00
5901;DHT22;2976;49.764;9.796;2024-03-29T09:00:57;10.20;1.00
5901;DHT22;2976;49.764;9.796;2024-03-29T09:03:23;10.10;1.00
5901;DHT22;2976;49.764;9.796;2024-03-29T09:05:50;10.10;99.90
5901;DHT22;2976;49.764;9.796;2024-03-29T09:08:17;10.10;99.90
5901;DHT22;2976;49.764;9.796;2024-03-29T09:10:43;10.10;99.90
5901;DHT22;2976;49.764;9.796;2024-03-29T09:13:09;10.00;1.00
5901;DHT22;2976;49.764;9.796;2024-03-29T09:15:36;10.00;1.00
5901;DHT22;2976;49.764;9.796;2024-03-29T09:18:01;9.90;99.90
5901;DHT22;2976;49.764;9.796;2024-03-29T09:20:35;9.90;1.00
5901;DHT22;2976;49.764;9.796;2024-03-29T09:23:01;9.90;99.10
5901;DHT22;2976;49.764;9.796;2024-03-29T09:25:26;9.90;99.90
5901;DHT22;2976;49.764;9.796;2024-03-29T09:27:52;9.80;99.90
5901;DHT22;2976;49.764;9.796;2024-03-29T09:30:17;9.80;1.00
5901;DHT22;2976;49.764;9.796;2024-03-29T09:32:45;9.80;1.00
5901;DHT22;2976;49.764;9.796;2024-03-29T09:35:10;9.70;1.00
5901;DHT22;2976;49.764;9.796;2024-03-29T09:37:36;9.70;99.90
5901;DHT22;2976;49.764;9.796;2024-03-29T09:40:03;9.70;99.90
5901;DHT22;2976;49.764;9.796;2024-03-29T09:42:32;9.70;99.90
5901;DHT22;2976;49.764;9.796;2024-03-29T09:44:59;9.80;98.80
5901;DHT22;2976;49.764;9.796;2024-03-29T09:47:27;9.80;1.00
5901;DHT22;2976;49.764;9.796;2024-03-29T09:49:53;9.70;99.90
5901;DHT22;2976;49.764;9.796;2024-03-29T09:52:20;9.70;76.40
5901;DHT22;2976;49.764;9.796;2024-03-29T09:54:46;9.70;99.90
5901;DHT22;2976;49.764;9.796;2024-03-29T09:57:12;9.60;99.90
5901;DHT22;2976;49.764;9.796;2024-03-29T09:59:42;9.50;1.00
5901;DHT22;2976;49.764;9.796;2024-03-29T10:02:15;9.50;91.60
5901;DHT22;2976;49.764;9.796;2024-03-29T10:04:42;9.40;99.90
5901;DHT22;2976;49.764;9.796;2024-03-29T10:07:08;9.40;99.90
5901;DHT22;2976;49.764;9.796;2024-03-29T10:09:35;9.30;1.00
5901;DHT22;2976;49.764;9.796;2024-03-29T10:12:01;9.30;99.90
5901;DHT22;2976;49.764;9.796;2024-03-29T10:14:30;9.30;99.90
5901;DHT22;2976;49.764;9.796;2024-03-29T10:16:57;9.30;99.90
5901;DHT22;2976;49.764;9.796;2024-03-29T10:19:23;9.30;1.00
5901;DHT22;2976;49.764;9.796;2024-03-29T10:21:48;9.30;99.90
5901;DHT22;2976;49.764;9.796;2024-03-29T10:24:14;9.30;99.90
5901;DHT22;2976;49.764;9.796;2024-03-29T10:26:43;9.40;1.00
5901;DHT22;2976;49.764;9.796;2024-03-29T10:29:10;9.40;1.00
5901;DHT22;2976;49.764;9.796;2024-03-29T10:31:37;9.40;1.00
5901;DHT22;2976;49.764;9.796;2024-03-29T10:34:04;9.40;1.00
5901;DHT22;2976;49.764;9.796;2024-03-29T10:36:31;9.40;99.90
5901;DHT22;2976;49.764;9.796;2024-03-29T10:39:08;9.30;99.90
5901;DHT22;2976;49.764;9.796;2024-03-29T10:41:40;9.40;99.90
5901;DHT22;2976;49.764;9.796;2024-03-29T10:44:11;9.70;99.90
5901;DHT22;2976;49.764;9.796;2024-03-29T10:46:38;10.00;1.00
5901;DHT22;2976;49.764;9.796;2024-03-29T10:49:07;10.30;1.00
5901;DHT22;2976;49.764;9.796;2024-03-29T10:51:40;10.50;99.90
5901;DHT22;2976;49.764;9.796;2024-03-29T10:54:08;10.60;1.00
5901;DHT22;2976;49.764;9.796;2024-03-29T10:56:40;10.50;1.00
5901;DHT22;2976;49.764;9.796;2024-03-29T11:05:02;10.60;99.90
5901;DHT22;2976;49.764;9.796;2024-03-29T11:07:34;10.60;99.90
5901;DHT22;2976;49.764;9.796;2024-03-29T11:10:03;10.70;99.90
5901;DHT22;2976;49.764;9.796;2024-03-29T11:12:38;10.70;99.90
5901;DHT22;2976;49.764;9.796;2024-03-29T11:15:15;10.50;1.00
5901;DHT22;2976;49.764;9.796;2024-03-29T11:17:42;10.40;54.20
5901;DHT22;2976;49.764;9.796;2024-03-29T11:20:11;10.30;56.60
5901;DHT22;2976;49.764;9.796;2024-03-29T11:22:43;10.20;1.00
5901;DHT22;2976;49.764;9.796;2024-03-29T11:25:10;10.20;17.00
5901;DHT22;2976;49.764;9.796;2024-03-29T11:27:38;10.10;99.90
5901;DHT22;2976;49.764;9.796;2024-03-29T11:30:05;10.30;1.00
5901;DHT22;2976;49.764;9.796;2024-03-29T11:32:52;10.50;1.00
5901;DHT22;2976;49.764;9.796;2024-03-29T11:35:21;10.60;99.90
5901;DHT22;2976;49.764;9.796;2024-03-29T11:37:56;10.70;99.90
5901;DHT22;2976;49.764;9.796;2024-03-29T11:40:30;10.90;99.90
5901;DHT22;2976;49.764;9.796;2024-03-29T11:42:55;11.00;1.00
5901;DHT22;2976;49.764;9.796;2024-03-29T11:45:24;11.20;1.00
5901;DHT22;2976;49.764;9.796;2024-03-29T11:47:54;11.20;99.90
5901;DHT22;2976;49.764;9.796;2024-03-29T11:50:23;11.30;99.90
5901;DHT22;2976;49.764;9.796;2024-03-29T11:52:50;11.20;1.00
5901;DHT22;2976;49.764;9.796;2024-03-29T11:55:16;11.20;1.00
5901;DHT22;2976;49.764;9.796;2024-03-29T11:57:43;11.20;1.00
5901;DHT22;2976;49.764;9.796;2024-03-29T12:00:09;11.30;1.00
5901;DHT22;2976;49.764;9.796;2024-03-29T12:02:35;11.30;1.00
5901;DHT22;2976;49.764;9.796;2024-03-29T12:05:06;11.40;1.00
5901;DHT22;2976;49.764;9.796;2024-03-29T12:07:33;11.60;1.00
5901;DHT22;2976;49.764;9.796;2024-03-29T12:09:59;11.60;1.00
5901;DHT22;2976;49.764;9.796;2024-03-29T12:12:25;11.60;99.90
5901;DHT22;2976;49.764;9.796;2024-03-29T12:14:50;11.40;7.40
5901;DHT22;2976;49.764;9.796;2024-03-29T12:17:16;11.50;45.10
5901;DHT22;2976;49.764;9.796;2024-03-29T12:19:41;11.60;99.90
5901;DHT22;2976;49.764;9.796;2024-03-29T12:22:09;11.60;73.70
5901;DHT22;2976;49.764;9.796;2024-03-29T12:24:35;11.60;1.00
5901;DHT22;2976;49.764;9.796;2024-03-29T12:27:01;11.50;1.00
5901;DHT22;2976;49.764;9.796;2024-03-29T12:29:29;11.40;99.90
5901;DHT22;2976;49.764;9.796;2024-03-29T12:32:02;11.30;99.90
5901;DHT22;2976;49.764;9.796;2024-03-29T12:34:28;11.30;1.00
5901;DHT22;2976;49.764;9.796;2024-03-29T12:36:53;11.40;1.00
5901;DHT22;2976;49.764;9.796;2024-03-29T12:39:19;11.40;1.00
5901;DHT22;2976;49.764;9.796;2024-03-29T12:41:50;11.40;1.00
5901;DHT22;2976;49.764;9.796;2024-03-29T12:44:15;11.50;1.00
5901;DHT22;2976;49.764;9.796;2024-03-29T12:46:41;11.50;51.40
5901;DHT22;2976;49.764;9.796;2024-03-29T12:49:10;11.50;89.80
5901;DHT22;2976;49.764;9.796;2024-03-29T12:51:39;11.50;99.90
5901;DHT22;2976;49.764;9.796;2024-03-29T12:54:05;11.50;99.90
5901;DHT22;2976;49.764;9.796;2024-03-29T12:56:31;11.50;70.20
5901;DHT22;2976;49.764;9.796;2024-03-29T12:59:00;11.50;51.80
5901;DHT22;2976;49.764;9.796;2024-03-29T13:01:25;11.60;86.60
5901;DHT22;2976;49.764;9.796;2024-03-29T13:03:51;11.50;99.90
5901;DHT22;2976;49.764;9.796;2024-03-29T13:06:16;11.50;99.90
5901;DHT22;2976;49.764;9.796;2024-03-29T13:08:42;11.50;99.90
5901;DHT22;2976;49.764;9.796;2024-03-29T13:11:08;11.60;1.00
5901;DHT22;2976;49.764;9.796;2024-03-29T13:13:35;11.70;1.00
5901;DHT22;2976;49.764;9.796;2024-03-29T13:16:01;11.70;1.00
5901;DHT22;2976;49.764;9.796;2024-03-29T13:18:31;11.70;1.00
5901;DHT22;2976;49.764;9.796;2024-03-29T13:20:57;11.70;1.00
5901;DHT22;2976;49.764;9.796;2024-03-29T13:23:25;11.70;1.00
5901;DHT22;2976;49.764;9.796;2024-03-29T13:25:50;11.70;1.00
5901;DHT22;2976;49.764;9.796;2024-03-29T13:28:18;11.80;99.90
5901;DHT22;2976;49.764;9.796;2024-03-29T13:30:44;11.80;99.90
5901;DHT22;2976;49.764;9.796;2024-03-29T13:33:11;11.80;99.90
5901;DHT22;2976;49.764;9.796;2024-03-29T13:35:37;11.80;99.90
5901;DHT22;2976;49.764;9.796;2024-03-29T13:38:04;11.80;99.90
5901;DHT22;2976;49.764;9.796;2024-03-29T13:40:29;11.90;99.90
5901;DHT22;2976;49.764;9.796;2024-03-29T13:42:56;12.00;99.90
5901;DHT22;2976;49.764;9.796;2024-03-29T13:45:22;12.10;99.90
5901;DHT22;2976;49.764;9.796;2024-03-29T13:47:51;12.20;99.90
5901;DHT22;2976;49.764;9.796;2024-03-29T13:50:16;12.20;99.90
5901;DHT22;2976;49.764;9.796;2024-03-29T13:52:43;12.40;99.90
5901;DHT22;2976;49.764;9.796;2024-03-29T13:55:16;12.50;76.30
5901;DHT22;2976;49.764;9.796;2024-03-29T13:57:42;12.50;99.90
5901;DHT22;2976;49.764;9.796;2024-03-29T14:00:12;12.50;99.90
5901;DHT22;2976;49.764;9.796;2024-03-29T14:02:43;12.40;1.00
5901;DHT22;2976;49.764;9.796;2024-03-29T14:05:11;12.40;61.30
5901;DHT22;2976;49.764;9.796;2024-03-29T14:07:44;12.40;10.00
5901;DHT22;2976;49.764;9.796;2024-03-29T14:10:10;12.40;1.00
5901;DHT22;2976;49.764;9.796;2024-03-29T14:12:35;12.50;10.60
5901;DHT22;2976;49.764;9.796;2024-03-29T14:15:02;12.50;66.90
5901;DHT22;2976;49.764;9.796;2024-03-29T14:17:32;12.50;6.40
5901;DHT22;2976;49.764;9.796;2024-03-29T14:19:57;12.50;24.50
5901;DHT22;2976;49.764;9.796;2024-03-29T14:22:24;12.60;99.70
5901;DHT22;2976;49.764;9.796;2024-03-29T14:24:51;12.60;66.70
5901;DHT22;2976;49.764;9.796;2024-03-29T14:27:16;12.60;49.80
5901;DHT22;2976;49.764;9.796;2024-03-29T14:29:42;12.70;99.90
5901;DHT22;2976;49.764;9.796;2024-03-29T14:32:10;12.80;99.90
5901;DHT22;2976;49.764;9.796;2024-03-29T14:34:35;12.80;99.90
5901;DHT22;2976;49.764;9.796;2024-03-29T14:37:04;12.80;1.00
5901;DHT22;2976;49.764;9.796;2024-03-29T14:39:31;12.90;1.00
5901;DHT22;2976;49.764;9.796;2024-03-29T14:41:56;12.90;99.90
5901;DHT22;2976;49.764;9.796;2024-03-29T14:44:24;12.80;1.00
5901;DHT22;2976;49.764;9.796;2024-03-29T14:46:49;13.20;1.00
5901;DHT22;2976;49.764;9.796;2024-03-29T14:49:15;13.40;20.20
5901;DHT22;2976;49.764;9.796;2024-03-29T14:51:43;13.50;99.90
5901;DHT22;2976;49.764;9.796;2024-03-29T14:54:09;13.40;99.90
5901;DHT22;2976;49.764;9.796;2024-03-29T14:56:36;13.50;99.90
5901;DHT22;2976;49.764;9.796;2024-03-29T14:59:04;13.60;1.00
5901;DHT22;2976;49.764;9.796;2024-03-29T15:01:30;13.80;58.20
5901;DHT22;2976;49.764;9.796;2024-03-29T15:03:56;13.90;1.00
5901;DHT22;2976;49.764;9.796;2024-03-29T15:06:22;14.30;99.90
5901;DHT22;2976;49.764;9.796;2024-03-29T15:08:52;14.50;99.90
5901;DHT22;2976;49.764;9.796;2024-03-29T15:11:18;14.60;1.00
5901;DHT22;2976;49.764;9.796;2024-03-29T15:13:44;14.20;1.00
5901;DHT22;2976;49.764;9.796;2024-03-29T15:16:09;13.90;1.00
5901;DHT22;2976;49.764;9.796;2024-03-29T15:18:35;13.80;1.00
5901;DHT22;2976;49.764;9.796;2024-03-29T15:21:01;13.70;99.90
5901;DHT22;2976;49.764;9.796;2024-03-29T15:23:28;13.60;99.90
5901;DHT22;2976;49.764;9.796;2024-03-29T15:26:03;13.50;99.90
5901;DHT22;2976;49.764;9.796;2024-03-29T15:28:47;13.50;1.00
5901;DHT22;2976;49.764;9.796;2024-03-29T15:31:32;13.30;6.00
5901;DHT22;2976;49.764;9.796;2024-03-29T15:33:57;13.30;1.00
5901;DHT22;2976;49.764;9.796;2024-03-29T15:36:26;13.30;99.90
5901;DHT22;2976;49.764;9.796;2024-03-29T15:38:52;13.10;1.00
5901;DHT22;2976;49.764;9.796;2024-03-29T15:41:27;13.10;1.00
5901;DHT22;2976;49.764;9.796;2024-03-29T15:43:53;13.00;1.00
5901;DHT22;2976;49.764;9.796;2024-03-29T15:46:20;13.00;39.80
5901;DHT22;2976;49.764;9.796;2024-03-29T15:48:46;12.90;99.90
5901;DHT22;2976;49.764;9.796;2024-03-29T15:51:12;12.90;99.90
5901;DHT22;2976;49.764;9.796;2024-03-29T15:53:46;12.80;1.00
5901;DHT22;2976;49.764;9.796;2024-03-29T15:56:12;12.70;1.00
5901;DHT22;2976;49.764;9.796;2024-03-29T15:58:38;12.70;1.00
5901;DHT22;2976;49.764;9.796;2024-03-29T16:01:04;12.60;99.90
5901;DHT22;2976;49.764;9.796;2024-03-29T16:03:30;12.60;99.90
5901;DHT22;2976;49.764;9.796;2024-03-29T16:05:56;12.60;99.90
5901;DHT22;2976;49.764;9.796;2024-03-29T16:08:23;12.50;99.90
5901;DHT22;2976;49.764;9.796;2024-03-29T16:11:00;12.50;99.90
5901;DHT22;2976;49.764;9.796;2024-03-29T16:13:31;12.50;99.90
5901;DHT22;2976;49.764;9.796;2024-03-29T16:15:59;12.50;99.90
5901;DHT22;2976;49.764;9.796;2024-03-29T16:18:26;12.40;99.90
5901;DHT22;2976;49.764;9.796;2024-03-29T16:20:53;12.50;99.90
5901;DHT22;2976;49.764;9.796;2024-03-29T16:23:19;12.50;99.90